createdAt,value
2022-08-23T00:00:23.976Z,19.77
2022-08-23T00:05:34.919Z,19.72
2022-08-23T00:10:40.383Z,19.64
2022-08-23T00:15:45.102Z,19.57
2022-08-23T00:20:56.990Z,19.49
2022-08-23T00:26:07.181Z,19.40
2022-08-23T00:31:13.212Z,19.33
2022-08-23T00:36:29.638Z,19.28
2022-08-23T00:41:36.854Z,19.18
2022-08-23T00:47:19.678Z,19.10
2022-08-23T00:52:33.742Z,18.99
2022-08-23T00:57:47.267Z,18.90
2022-08-23T01:02:54.191Z,18.80
2022-08-23T01:08:02.769Z,18.75
2022-08-23T01:13:16.101Z,18.70
2022-08-23T01:18:24.412Z,18.66
2022-08-23T01:23:37.061Z,18.60
2022-08-23T01:28:46.206Z,18.55
2022-08-23T01:34:02.530Z,18.52
2022-08-23T01:39:16.046Z,18.48
2022-08-23T01:44:21.805Z,18.43
2022-08-23T01:49:30.157Z,18.39
2022-08-23T01:54:37.447Z,18.36
2022-08-23T01:59:42.536Z,18.31
2022-08-23T02:04:48.486Z,18.26
2022-08-23T02:10:04.867Z,18.22
2022-08-23T02:15:10.539Z,18.16
2022-08-23T02:20:20.116Z,18.12
2022-08-23T02:25:32.524Z,18.07
2022-08-23T02:30:50.918Z,18.06
2022-08-23T02:35:58.779Z,18.02
2022-08-23T02:41:09.652Z,17.99
2022-08-23T02:46:16.341Z,17.95
2022-08-23T02:51:21.241Z,17.91
2022-08-23T02:56:30.446Z,17.85
2022-08-23T03:01:52.819Z,17.83
2022-08-23T03:06:57.411Z,17.80
2022-08-23T03:12:06.430Z,17.78
2022-08-23T03:17:17.350Z,17.75
2022-08-23T03:22:36.378Z,17.78
2022-08-23T03:27:46.832Z,17.78
2022-08-23T03:32:55.650Z,17.77
2022-08-23T03:38:13.737Z,17.73
2022-08-23T03:43:44.215Z,17.68
2022-08-23T03:48:56.586Z,17.67
2022-08-23T03:54:01.522Z,17.63
2022-08-23T03:59:13.155Z,17.61
2022-08-23T04:04:25.787Z,17.58
2022-08-23T04:09:55.402Z,17.65
2022-08-23T04:15:03.185Z,17.75
2022-08-23T04:20:09.948Z,17.85
2022-08-23T04:25:33.494Z,17.92
2022-08-23T04:30:47.348Z,17.99
2022-08-23T04:36:11.704Z,18.04
2022-08-23T04:41:34.984Z,18.12
2022-08-23T04:46:43.880Z,18.14
2022-08-23T04:51:54.224Z,18.21
2022-08-23T04:57:01.846Z,18.26
2022-08-23T05:02:17.569Z,18.33
2022-08-23T05:07:42.448Z,18.40
2022-08-23T05:12:49.359Z,18.48
2022-08-23T05:17:59.475Z,18.56
2022-08-23T05:23:09.926Z,18.65
2022-08-23T05:28:20.845Z,18.77
2022-08-23T05:33:38.949Z,18.86
2022-08-23T05:38:43.883Z,18.91
2022-08-23T05:43:49.751Z,19.02
2022-08-23T05:49:00.383Z,19.12
2022-08-23T05:54:09.706Z,19.30
2022-08-23T05:59:20.796Z,19.50
2022-08-23T06:04:42.802Z,19.74
2022-08-23T06:09:53.506Z,19.86
2022-08-23T06:15:12.035Z,19.95
2022-08-23T06:20:30.265Z,19.97
2022-08-23T06:25:41.250Z,20.06
2022-08-23T06:30:46.737Z,20.09
2022-08-23T06:36:04.553Z,20.17
2022-08-23T06:41:13.512Z,20.28
2022-08-23T06:46:28.129Z,20.33
2022-08-23T06:51:39.404Z,20.44
2022-08-23T06:56:49.899Z,20.53
2022-08-23T07:01:56.485Z,20.63
2022-08-23T07:07:07.155Z,20.78
2022-08-23T07:12:22.589Z,20.94
2022-08-23T07:17:28.356Z,21.09
2022-08-23T07:22:34.802Z,21.19
2022-08-23T07:27:46.394Z,21.33
2022-08-23T07:32:54.128Z,21.41
2022-08-23T07:38:06.216Z,21.48
2022-08-23T07:43:15.166Z,21.59
2022-08-23T07:48:50.206Z,21.69
2022-08-23T07:53:54.858Z,21.77
2022-08-23T07:59:30.425Z,21.87
2022-08-23T08:04:47.983Z,22.06
2022-08-23T08:10:06.301Z,22.24
2022-08-23T08:15:14.673Z,22.47
2022-08-23T08:20:24.918Z,22.61
2022-08-23T08:25:44.241Z,22.83
2022-08-23T08:31:03.040Z,22.94
2022-08-23T08:36:16.103Z,23.13
2022-08-23T08:41:46.203Z,23.24
2022-08-23T08:47:09.751Z,23.44
2022-08-23T08:52:26.279Z,23.69
2022-08-23T08:57:53.007Z,23.84
2022-08-23T09:03:06.353Z,24.00
2022-08-23T09:08:44.146Z,24.06
2022-08-23T09:14:45.382Z,24.17
2022-08-23T09:20:08.027Z,24.36
2022-08-23T09:25:28.489Z,24.62
2022-08-23T09:31:01.156Z,24.77
2022-08-23T09:36:25.296Z,24.95
2022-08-23T09:41:34.166Z,25.03
2022-08-23T09:46:44.098Z,24.98
2022-08-23T09:51:56.066Z,25.02
2022-08-23T09:57:17.315Z,25.05
2022-08-23T10:02:33.731Z,25.14
2022-08-23T10:07:52.323Z,25.22
2022-08-23T10:13:08.708Z,25.26
2022-08-23T10:24:25.014Z,25.63
2022-08-23T10:29:43.068Z,25.97
2022-08-23T10:35:08.658Z,26.24
2022-08-23T10:40:21.180Z,26.31
2022-08-23T10:45:33.202Z,26.09
2022-08-23T10:51:11.098Z,25.90
2022-08-23T10:56:28.972Z,25.84
2022-08-23T11:01:59.141Z,25.76
2022-08-23T11:07:42.135Z,25.68
2022-08-23T11:13:06.690Z,25.59
2022-08-23T11:18:12.621Z,25.44
2022-08-23T11:23:21.413Z,25.40
2022-08-23T11:28:44.752Z,25.82
2022-08-23T11:33:56.255Z,26.14
2022-08-23T11:39:19.588Z,26.11
2022-08-23T11:44:38.351Z,26.06
2022-08-23T11:50:18.899Z,26.01
2022-08-23T11:55:57.040Z,26.17
2022-08-23T12:01:16.572Z,26.58
2022-08-23T12:06:51.026Z,26.83
2022-08-23T12:12:37.811Z,26.64
2022-08-23T12:18:24.155Z,26.58
2022-08-23T12:23:34.507Z,26.52
2022-08-23T12:28:49.498Z,26.51
2022-08-23T12:34:25.240Z,26.47
2022-08-23T12:39:37.384Z,26.40
2022-08-23T12:44:45.173Z,26.25
2022-08-23T12:50:03.200Z,26.26
2022-08-23T12:55:18.897Z,26.21
2022-08-23T13:00:30.503Z,26.43
2022-08-23T13:05:52.841Z,26.68
2022-08-23T13:11:07.755Z,26.79
2022-08-23T13:16:35.050Z,26.73
2022-08-23T13:21:42.440Z,26.71
2022-08-23T13:26:51.935Z,26.75
2022-08-23T13:32:06.830Z,26.77
2022-08-23T13:37:29.582Z,26.62
2022-08-23T13:42:38.471Z,26.39
2022-08-23T13:47:52.616Z,26.26
2022-08-23T13:53:16.956Z,26.23
2022-08-23T13:58:37.318Z,26.34
2022-08-23T14:03:46.436Z,26.38
2022-08-23T14:09:01.991Z,26.33
2022-08-23T14:14:14.917Z,26.29
2022-08-23T14:24:52.707Z,26.26
2022-08-23T14:30:21.341Z,26.15
2022-08-23T14:35:54.754Z,26.13
2022-08-23T14:41:09.130Z,26.15
2022-08-23T14:46:15.623Z,26.15
2022-08-23T14:51:43.091Z,26.16
2022-08-23T14:56:56.598Z,26.16
2022-08-23T15:02:19.206Z,26.18
2022-08-23T15:07:58.662Z,26.16
2022-08-23T15:13:27.354Z,26.17
2022-08-23T15:18:33.967Z,26.16
2022-08-23T15:23:46.110Z,26.12
2022-08-23T15:34:35.414Z,26.01
2022-08-23T15:39:51.367Z,25.99
2022-08-23T15:45:17.501Z,25.98
2022-08-23T15:50:25.446Z,25.95
2022-08-23T15:55:33.741Z,25.88
2022-08-23T16:06:00.667Z,25.83
2022-08-23T16:11:13.508Z,25.79
2022-08-23T16:21:58.307Z,25.73
2022-08-23T16:27:06.182Z,25.69
2022-08-23T16:32:31.342Z,25.69
2022-08-23T16:37:39.960Z,25.66
2022-08-23T16:42:48.068Z,25.61
2022-08-23T16:47:55.020Z,25.57
2022-08-23T16:53:06.912Z,25.50
2022-08-23T16:58:11.881Z,25.45
2022-08-23T17:03:19.241Z,25.36
2022-08-23T17:08:27.902Z,25.30
2022-08-23T17:13:35.853Z,25.34
2022-08-23T17:18:44.474Z,25.31
2022-08-23T17:23:55.303Z,25.23
2022-08-23T17:28:59.898Z,25.17
2022-08-23T17:34:18.322Z,25.15
2022-08-23T17:39:27.990Z,25.07
2022-08-23T17:44:50.736Z,25.04
2022-08-23T17:50:00.005Z,24.93
2022-08-23T17:55:10.821Z,24.86
2022-08-23T18:00:19.989Z,24.80
2022-08-23T18:05:35.234Z,24.72
2022-08-23T18:10:43.201Z,24.64
2022-08-23T18:15:49.514Z,24.46
2022-08-23T18:20:58.344Z,24.34
2022-08-23T18:26:08.673Z,24.20
2022-08-23T18:31:22.607Z,24.05
2022-08-23T18:36:33.990Z,23.92
2022-08-23T18:41:41.537Z,23.77
2022-08-23T18:46:49.705Z,23.65
2022-08-23T18:52:01.829Z,23.51
2022-08-23T18:57:07.373Z,23.39
2022-08-23T19:02:19.781Z,23.27
2022-08-23T19:07:30.370Z,23.15
2022-08-23T19:12:38.981Z,23.06
2022-08-23T19:18:14.364Z,22.93
2022-08-23T19:23:24.745Z,22.84
2022-08-23T19:28:36.098Z,22.74
2022-08-23T19:33:52.766Z,22.64
2022-08-23T19:39:02.477Z,22.65
2022-08-23T19:44:10.989Z,22.67
2022-08-23T19:49:26.609Z,22.66
2022-08-23T19:54:42.279Z,22.63
2022-08-23T19:59:53.740Z,22.58
2022-08-23T20:05:09.672Z,22.52
2022-08-23T20:10:34.661Z,22.45
2022-08-23T20:15:46.792Z,22.37
2022-08-23T20:20:55.655Z,22.30
2022-08-23T20:26:02.442Z,22.21
2022-08-23T20:31:22.527Z,22.14
2022-08-23T20:36:36.492Z,22.03
2022-08-23T20:41:45.232Z,21.93
2022-08-23T20:46:54.840Z,21.85
2022-08-23T20:52:09.105Z,21.74
2022-08-23T21:02:38.500Z,21.57
2022-08-23T21:07:56.394Z,21.53
2022-08-23T21:13:06.894Z,21.53
2022-08-23T21:18:17.270Z,21.53
2022-08-23T21:23:24.296Z,21.51
2022-08-23T21:28:40.400Z,21.48
2022-08-23T21:33:47.814Z,21.44
2022-08-23T21:38:57.579Z,21.41
2022-08-23T21:44:18.655Z,21.37
2022-08-23T21:49:47.787Z,21.28
2022-08-23T21:54:52.467Z,21.21
2022-08-23T22:00:00.116Z,21.14
2022-08-23T22:05:06.639Z,21.05
2022-08-23T22:10:23.457Z,21.00
2022-08-23T22:15:49.061Z,20.92
2022-08-23T22:20:55.547Z,20.85
2022-08-23T22:26:12.899Z,20.80
2022-08-23T22:31:23.178Z,20.72
2022-08-23T22:36:42.668Z,20.65
2022-08-23T22:41:51.347Z,20.58
2022-08-23T22:47:09.154Z,20.54
2022-08-23T22:52:27.822Z,20.48
2022-08-23T22:57:44.462Z,20.40
2022-08-23T23:02:54.476Z,20.36
2022-08-23T23:08:36.817Z,20.30
2022-08-23T23:13:49.639Z,20.24
2022-08-23T23:19:18.707Z,20.21
2022-08-23T23:24:41.404Z,20.14
2022-08-23T23:29:53.703Z,20.08
2022-08-23T23:35:16.050Z,20.06
2022-08-23T23:40:24.960Z,19.98
2022-08-23T23:45:34.916Z,19.95
2022-08-23T23:50:54.146Z,19.92
2022-08-23T23:56:04.369Z,19.86
